Terminal Aerodrome Forecast
Issued by NWS Miami, FL

Home | Current Version | Previous Version | Text Only | Print | Product List | Glossary On
Versions: 1 2 3 4 5 6 7 8 9 10 11 12 13 14 15 16 17 18 19 20 21 22 23 24 25
000
FTUS42 KMFL 262335
TAFAPF
TAF
KAPF 262335Z 2700/2724 25006KT P6SM VCSH BKN050 BKN070
     FM270200 VRB03KT P6SM SCT030 SCT250
     FM271400 07007KT P6SM FEW040 SCT250
     FM271700 28010KT P6SM SCT035 SCT250=

USA.gov is the U.S. government's official web portal to all federal, state and local government web resources and services.